LEH weather

Le Havre Octeville Airport
Le Havre/Octeville, Normandy, France

Public forecast

Using degrees Celsius for public forecast. Weather courtesy of forecast.io.

Current aviation weather report (METAR) for Le Havre Octeville Airport

Retrieved 2020/01/22 22:30 UTC (6 minutes ago):

LFOH 222230Z AUTO 10010KT 4100 BR FEW004 01/00 Q1034

Aviation forecast (TAF) for Le Havre Octeville Airport

Retrieved 2020/01/22 19:11 UTC (3 hours ago):

TAF LFOH 221904Z 2219/2312 CNL